Time;durP1;ratioP1;P1;durP2;ratioP2;P2;SDS_P1;SDS_P2;PMS_P1;PMS_P2;Temp;Humidity;BMP_temperature;BMP_pressure;BME280_temperature;BME280_humidity;BME280_pressure;Samples;Min_cycle;Max_cycle;Signal;HPM_P1;HPM_P2
2022/01/27 00:01:33;;;;;;;27.33;11.48;;;5.90;99.90;;;;;;5041176;28;20141;-83
2022/01/27 00:04:12;;;;;;;27.48;11.80;;;5.90;99.90;;;;;;4989031;28;20065;-83
2022/01/27 00:06:39;;;;;;;24.70;11.10;;;6.90;99.90;;;;;;5007399;28;20053;-83
2022/01/27 00:09:17;;;;;;;22.00;11.13;;;5.90;99.90;;;;;;4999386;28;20624;-82
2022/01/27 00:11:46;;;;;;;26.50;13.57;;;5.90;99.90;;;;;;4993227;28;20057;-82
2022/01/27 00:14:13;;;;;;;27.00;11.77;;;6.40;99.90;;;;;;5005502;28;20077;-83
2022/01/27 00:16:43;;;;;;;24.85;10.98;;;5.90;99.90;;;;;;5009922;28;20075;-83
2022/01/27 00:19:13;;;;;;;29.58;12.05;;;5.90;99.90;;;;;;5028808;28;20077;-83
2022/01/27 00:21:39;;;;;;;24.40;11.00;;;5.80;99.90;;;;;;5009339;28;20442;-82
2022/01/27 00:24:05;;;;;;;26.17;12.30;;;5.80;99.90;;;;;;4993799;28;20049;-83
2022/01/27 00:26:31;;;;;;;23.70;12.43;;;5.80;99.90;;;;;;5009996;28;20061;-83
2022/01/27 00:28:57;;;;;;;24.52;12.82;;;5.80;99.90;;;;;;5029477;28;20054;-83
2022/01/27 00:31:23;;;;;;;27.38;13.35;;;5.80;99.90;;;;;;5026411;28;20045;-82
2022/01/27 00:33:50;;;;;;;25.52;13.02;;;5.90;99.90;;;;;;4995169;28;20133;-83
2022/01/27 00:36:16;;;;;;;30.38;12.88;;;5.90;99.90;;;;;;5027433;28;20037;-83
2022/01/27 00:38:42;;;;;;;30.92;13.13;;;5.90;99.90;;;;;;4994013;28;20069;-83
2022/01/27 00:41:08;;;;;;;28.00;12.30;;;5.80;99.90;;;;;;4993938;28;20141;-83
2022/01/27 00:43:33;;;;;;;24.10;12.13;;;5.80;99.90;;;;;;5015594;28;20052;-81
2022/01/27 00:45:59;;;;;;;25.17;12.63;;;5.80;99.90;;;;;;5008571;28;20046;-81
2022/01/27 00:48:25;;;;;;;28.75;12.45;;;6.20;99.90;;;;;;5025900;28;20052;-81
2022/01/27 00:50:57;;;;;;;24.25;12.77;;;5.80;99.90;;;;;;5017831;28;20054;-81
2022/01/27 00:55:52;;;;;;;32.72;11.70;;;6.10;99.90;;;;;;5011964;28;20390;-81
2022/01/27 00:58:36;;;;;;;28.48;13.00;;;5.80;99.90;;;;;;5009271;28;20046;-81
2022/01/27 01:01:07;;;;;;;28.25;12.70;;;5.80;99.90;;;;;;5009645;28;20045;-82
2022/01/27 01:03:38;;;;;;;30.95;13.90;;;5.70;99.90;;;;;;5010261;28;20065;-83
2022/01/27 01:30:22;;;;;;;27.10;13.57;;;6.00;99.90;;;;;;5014088;28;20060;-81
2022/01/27 01:32:57;;;;;;;32.28;13.38;;;5.60;99.90;;;;;;4989567;28;20123;-81
2022/01/27 01:35:29;;;;;;;24.77;12.97;;;5.60;99.90;;;;;;5009886;28;20052;-81
2022/01/27 01:37:56;;;;;;;29.45;14.80;;;5.60;99.90;;;;;;4992408;28;20181;-83
2022/01/27 01:40:22;;;;;;;31.42;15.05;;;5.60;99.90;;;;;;5025211;28;20054;-83
2022/01/27 01:42:49;;;;;;;25.75;13.90;;;5.90;99.90;;;;;;4990657;28;20068;-83
2022/01/27 01:45:17;;;;;;;31.85;13.60;;;5.90;99.90;;;;;;5006891;28;20527;-83
2022/01/27 01:47:46;;;;;;;24.98;12.68;;;6.70;99.90;;;;;;5004865;28;20492;-83
2022/01/27 01:50:14;;;;;;;27.88;12.98;;;5.70;99.90;;;;;;4989447;28;20042;-81
2022/01/27 01:52:40;;;;;;;26.13;13.65;;;5.80;99.90;;;;;;5021115;28;20564;-82
2022/01/27 01:55:07;;;;;;;28.27;13.68;;;5.60;99.90;;;;;;5023103;28;20053;-82
2022/01/27 01:57:34;;;;;;;29.48;12.90;;;5.80;99.90;;;;;;5004616;28;20053;-82
2022/01/27 02:00:00;;;;;;;31.63;12.60;;;6.30;99.90;;;;;;4997721;28;20045;-81
2022/01/27 02:02:26;;;;;;;25.98;12.38;;;5.80;99.90;;;;;;4989983;28;20058;-80
2022/01/27 02:04:54;;;;;;;36.60;14.07;;;5.70;99.90;;;;;;5005953;28;20060;-81
2022/01/27 02:07:45;;;;;;;25.90;12.10;;;5.70;99.90;;;;;;5014135;28;20081;-82
2022/01/27 02:18:13;;;;;;;27.48;14.32;;;4.70;99.90;;;;;;5038659;28;20496;-81
2022/01/27 02:20:40;;;;;;;29.98;13.02;;;7.40;99.90;;;;;;5021514;28;20145;-81
2022/01/27 02:23:08;;;;;;;27.35;12.05;;;6.00;99.90;;;;;;5005993;28;20050;-81
2022/01/27 02:25:34;;;;;;;28.10;12.88;;;6.00;99.90;;;;;;5005994;28;20057;-81
2022/01/27 02:28:00;;;;;;;30.73;14.57;;;6.00;99.90;;;;;;4981214;28;20061;-82
2022/01/27 02:30:27;;;;;;;27.38;12.65;;;6.90;99.90;;;;;;5012459;28;20049;-82
2022/01/27 02:32:54;;;;;;;28.15;12.20;;;6.00;99.90;;;;;;5029070;28;20046;-82
2022/01/27 02:35:22;;;;;;;29.13;12.07;;;5.90;99.90;;;;;;5005906;28;20447;-82
2022/01/27 02:37:48;;;;;;;24.33;12.90;;;6.50;99.90;;;;;;5004524;28;20060;-82
2022/01/27 02:40:34;;;;;;;31.13;12.95;;;7.00;99.90;;;;;;4996366;28;20045;-82
2022/01/27 02:43:01;;;;;;;27.58;11.73;;;6.00;99.90;;;;;;5003946;28;20058;-82
2022/01/27 02:45:44;;;;;;;24.05;13.38;;;6.20;99.90;;;;;;4989100;28;20144;-81
2022/01/27 02:48:12;;;;;;;30.33;11.82;;;6.10;99.90;;;;;;5022473;28;20144;-82
2022/01/27 02:50:37;;;;;;;28.00;11.55;;;6.00;99.90;;;;;;4998896;28;20100;-81
2022/01/27 02:53:04;;;;;;;24.85;11.95;;;6.10;99.90;;;;;;4971522;28;20085;-82
2022/01/27 02:55:29;;;;;;;27.20;11.80;;;6.10;99.90;;;;;;5002753;28;20046;-81
2022/01/27 02:57:58;;;;;;;25.40;11.70;;;6.10;99.90;;;;;;4988433;28;20049;-81
2022/01/27 03:00:44;;;;;;;30.63;12.60;;;6.10;99.90;;;;;;4974374;28;20041;-81
2022/01/27 03:03:10;;;;;;;31.83;11.90;;;6.20;99.90;;;;;;5001750;28;20050;-81
2022/01/27 03:05:35;;;;;;;24.05;10.68;;;7.10;99.90;;;;;;4987434;28;20137;-81
2022/01/27 03:08:01;;;;;;;28.55;11.63;;;6.10;99.90;;;;;;4987988;28;20480;-81
2022/01/27 03:10:32;;;;;;;26.25;10.25;;;6.20;99.90;;;;;;5011604;28;20078;-81
2022/01/27 03:13:00;;;;;;;24.98;10.45;;;6.10;99.90;;;;;;5036621;28;20049;-81
2022/01/27 03:15:27;;;;;;;30.70;11.13;;;6.20;99.90;;;;;;4989378;28;20072;-81
2022/01/27 03:17:53;;;;;;;24.98;10.48;;;6.10;99.90;;;;;;5003211;28;20044;-81
2022/01/27 03:20:19;;;;;;;28.17;10.80;;;6.20;99.90;;;;;;5002061;28;20052;-81
2022/01/27 03:22:45;;;;;;;20.23;9.70;;;5.10;99.90;;;;;;5003789;28;20132;-82
2022/01/27 03:25:11;;;;;;;27.40;10.57;;;6.20;99.90;;;;;;5038189;28;20053;-82
2022/01/27 03:27:43;;;;;;;22.05;9.45;;;6.30;99.90;;;;;;4996202;28;20056;-81
2022/01/27 03:30:10;;;;;;;26.17;10.02;;;7.30;99.90;;;;;;5004998;28;20585;-82
2022/01/27 03:32:36;;;;;;;24.75;9.55;;;6.30;99.90;;;;;;5004057;28;20050;-82
2022/01/27 03:35:02;;;;;;;19.38;8.93;;;6.30;99.90;;;;;;5036541;28;20052;-82
2022/01/27 03:37:27;;;;;;;24.17;9.43;;;6.30;99.90;;;;;;4965239;28;20465;-82
2022/01/27 03:39:53;;;;;;;24.05;10.10;;;6.40;99.90;;;;;;5004211;28;20045;-82
2022/01/27 03:42:19;;;;;;;27.50;9.68;;;6.30;99.90;;;;;;4955925;28;20048;-82
2022/01/27 03:44:45;;;;;;;24.73;9.60;;;6.30;99.90;;;;;;4987324;28;20053;-82
2022/01/27 03:47:10;;;;;;;18.63;8.90;;;6.30;99.90;;;;;;5005372;28;20125;-82
2022/01/27 03:49:36;;;;;;;24.33;9.07;;;6.30;99.90;;;;;;4994206;28;20092;-82
2022/01/27 03:52:02;;;;;;;23.67;9.90;;;6.30;99.90;;;;;;5019729;28;20042;-82
2022/01/27 03:54:30;;;;;;;24.67;9.93;;;6.30;99.90;;;;;;5004728;28;20053;-82
2022/01/27 03:56:57;;;;;;;22.58;9.75;;;6.30;99.90;;;;;;5020441;28;20812;-82
2022/01/27 03:59:23;;;;;;;21.60;9.48;;;7.80;99.90;;;;;;4988261;28;20438;-82
2022/01/27 04:01:49;;;;;;;25.73;9.35;;;6.30;99.90;;;;;;5002391;28;20046;-82
2022/01/27 04:04:15;;;;;;;21.95;9.38;;;6.30;99.90;;;;;;4994374;28;20820;-82
2022/01/27 04:06:41;;;;;;;24.95;9.43;;;6.40;99.90;;;;;;4990288;28;20147;-81
2022/01/27 04:09:10;;;;;;;31.27;10.20;;;6.40;99.90;;;;;;5022008;28;20092;-82
2022/01/27 04:11:36;;;;;;;24.58;9.32;;;6.30;99.90;;;;;;4992474;28;20046;-83
2022/01/27 04:14:02;;;;;;;24.98;9.10;;;6.40;99.90;;;;;;4988864;28;20085;-83
2022/01/27 04:16:28;;;;;;;28.15;9.65;;;6.40;99.90;;;;;;4972187;28;20053;-83
2022/01/27 04:18:54;;;;;;;23.55;9.48;;;6.40;99.90;;;;;;5004022;28;20042;-83
2022/01/27 04:21:20;;;;;;;16.13;9.23;;;6.30;99.90;;;;;;5037731;28;20060;-83
2022/01/27 04:23:46;;;;;;;25.73;11.02;;;6.70;99.90;;;;;;5024941;28;20046;-83
2022/01/27 04:26:16;;;;;;;24.40;10.60;;;6.40;99.90;;;;;;5002945;28;20049;-83
2022/01/27 04:28:43;;;;;;;25.75;10.50;;;6.30;99.90;;;;;;5020877;28;20103;-82
2022/01/27 04:31:10;;;;;;;25.45;10.27;;;6.30;99.90;;;;;;5022119;28;20403;-82
2022/01/27 04:33:38;;;;;;;26.23;9.98;;;6.70;99.90;;;;;;5034852;28;20070;-82
2022/01/27 04:36:12;;;;;;;26.98;10.88;;;6.40;99.90;;;;;;5034833;28;20124;-83
2022/01/27 04:38:51;;;;;;;29.15;10.70;;;6.40;99.90;;;;;;4997999;28;20082;-83
2022/01/27 04:44:22;;;;;;;23.65;9.93;;;6.90;99.90;;;;;;5004825;28;20399;-82
2022/01/27 04:46:54;;;;;;;28.75;10.25;;;6.40;99.90;;;;;;5040171;28;20054;-82
2022/01/27 04:49:20;;;;;;;25.25;9.70;;;6.40;99.90;;;;;;5027106;28;20961;-83
2022/01/27 04:51:46;;;;;;;26.40;10.73;;;6.30;99.90;;;;;;5021129;28;20060;-83
2022/01/27 04:56:41;;;;;;;31.05;10.52;;;6.40;99.90;;;;;;5021715;28;20842;-82
2022/01/27 04:59:25;;;;;;;25.50;9.80;;;;;;;;;;5005169;28;20490;-83
2022/01/27 05:01:57;;;;;;;24.15;10.18;;;6.50;99.90;;;;;;5031498;28;20560;-83
2022/01/27 05:04:29;;;;;;;30.83;10.23;;;6.50;99.90;;;;;;4989641;28;20054;-83
2022/01/27 05:06:55;;;;;;;29.90;10.25;;;6.50;99.90;;;;;;5009418;28;20112;-82
2022/01/27 05:09:23;;;;;;;31.45;10.77;;;6.60;99.90;;;;;;5007490;28;20510;-82
2022/01/27 05:12:09;;;;;;;23.50;9.90;;;6.50;99.90;;;;;;5002352;28;20050;-82
2022/01/27 05:14:35;;;;;;;31.92;11.38;;;6.50;99.90;;;;;;5022856;28;20443;-82
2022/01/27 05:17:01;;;;;;;26.75;10.40;;;6.50;99.90;;;;;;5005795;28;20049;-82
2022/01/27 05:19:27;;;;;;;26.58;10.48;;;6.50;99.90;;;;;;5008176;28;20133;-82
2022/01/27 05:21:53;;;;;;;35.78;11.32;;;7.00;99.90;;;;;;4990753;28;20986;-82
2022/01/27 05:24:19;;;;;;;32.55;12.10;;;6.50;99.90;;;;;;5004925;28;20045;-83
2022/01/27 05:26:45;;;;;;;33.15;10.88;;;6.40;99.90;;;;;;5025543;28;20131;-82
2022/01/27 05:29:11;;;;;;;34.72;11.90;;;6.40;99.90;;;;;;5023305;28;20480;-82
2022/01/27 05:31:38;;;;;;;28.30;11.68;;;6.40;99.90;;;;;;5006779;28;20042;-82
2022/01/27 05:34:04;;;;;;;33.60;12.20;;;6.40;99.90;;;;;;5005123;28;20050;-82
2022/01/27 05:36:31;;;;;;;32.50;11.98;;;6.40;99.90;;;;;;5038135;28;20129;-82
2022/01/27 05:38:57;;;;;;;34.65;12.00;;;6.30;99.90;;;;;;5005552;28;20044;-82
2022/01/27 05:41:23;;;;;;;30.30;12.23;;;6.30;99.90;;;;;;5006705;28;20053;-82
2022/01/27 05:43:48;;;;;;;34.15;12.10;;;6.30;99.90;;;;;;4989678;28;20049;-81
2022/01/27 05:46:14;;;;;;;29.20;11.25;;;6.30;99.90;;;;;;4991504;28;20046;-82
2022/01/27 05:48:40;;;;;;;32.70;12.02;;;6.80;99.90;;;;;;5006296;28;20103;-81
2022/01/27 05:51:06;;;;;;;28.25;10.65;;;6.30;99.90;;;;;;4990059;28;20092;-81
2022/01/27 05:53:32;;;;;;;37.63;12.82;;;6.30;99.90;;;;;;4989362;28;20053;-82
2022/01/27 05:55:59;;;;;;;31.45;11.65;;;6.30;99.90;;;;;;4989228;28;20042;-82
2022/01/27 05:58:25;;;;;;;32.70;11.55;;;6.40;99.90;;;;;;4991211;28;20050;-81
2022/01/27 06:00:51;;;;;;;28.50;10.70;;;7.50;99.90;;;;;;5036436;28;20046;-82
2022/01/27 06:03:25;;;;;;;31.33;11.07;;;6.30;99.90;;;;;;4987777;28;20073;-82
2022/01/27 06:05:50;;;;;;;34.28;10.82;;;6.30;99.90;;;;;;5005481;28;20038;-81
2022/01/27 06:08:18;;;;;;;34.78;12.05;;;6.30;99.90;;;;;;5003165;28;20593;-81
2022/01/27 06:10:44;;;;;;;26.48;11.68;;;6.40;99.90;;;;;;5020807;28;20133;-82
2022/01/27 06:13:10;;;;;;;31.17;10.82;;;6.40;99.90;;;;;;4966065;28;20247;-82
2022/01/27 06:15:36;;;;;;;29.23;11.18;;;6.40;99.90;;;;;;4971703;28;20133;-82
2022/01/27 06:18:01;;;;;;;28.25;10.65;;;6.50;99.90;;;;;;5022758;28;20037;-82
2022/01/27 06:20:32;;;;;;;38.85;12.20;;;6.40;99.90;;;;;;4994831;28;20117;-83
2022/01/27 06:22:58;;;;;;;31.17;11.27;;;6.90;99.90;;;;;;5034776;28;20088;-84
2022/01/27 06:25:30;;;;;;;29.85;10.75;;;6.60;99.90;;;;;;5004296;28;20137;-83
2022/01/27 06:27:56;;;;;;;28.60;9.82;;;6.30;99.90;;;;;;5003563;28;20042;-83
2022/01/27 06:30:22;;;;;;;35.03;11.70;;;6.60;99.90;;;;;;5019790;28;20053;-84
2022/01/27 06:32:48;;;;;;;31.73;10.90;;;6.30;99.90;;;;;;4987637;28;20079;-83
2022/01/27 06:35:14;;;;;;;26.27;10.52;;;6.30;99.90;;;;;;5021931;28;20137;-80
2022/01/27 06:37:42;;;;;;;30.25;10.27;;;6.40;99.90;;;;;;4989371;28;20053;-82
2022/01/27 06:40:12;;;;;;;31.70;10.88;;;7.80;99.90;;;;;;5003664;28;20053;-84
2022/01/27 06:42:38;;;;;;;29.33;10.25;;;6.40;99.90;;;;;;4957159;28;20100;-82
2022/01/27 06:45:05;;;;;;;27.92;9.98;;;6.40;99.90;;;;;;5003841;28;20521;-82
2022/01/27 06:47:31;;;;;;;28.05;9.82;;;6.50;99.90;;;;;;5019581;28;20403;-83
2022/01/27 06:49:57;;;;;;;27.63;9.30;;;6.50;99.90;;;;;;5006420;28;20049;-81
2022/01/27 06:52:26;;;;;;;24.85;8.70;;;6.50;99.90;;;;;;5019237;28;20050;-82
2022/01/27 06:54:55;;;;;;;28.48;9.18;;;6.60;99.90;;;;;;4974367;28;20234;-82
2022/01/27 06:57:21;;;;;;;23.38;8.98;;;6.60;99.90;;;;;;4989835;28;20116;-82
2022/01/27 06:59:47;;;;;;;28.38;8.80;;;6.60;99.90;;;;;;5018460;28;20041;-82
2022/01/27 07:02:12;;;;;;;22.95;7.53;;;6.70;99.90;;;;;;4998838;28;20054;-81
2022/01/27 07:04:38;;;;;;;19.60;8.30;;;6.90;99.90;;;;;;4987007;28;20054;-81
2022/01/27 07:07:04;;;;;;;22.60;7.35;;;6.70;99.90;;;;;;5005622;28;20793;-80
2022/01/27 07:09:30;;;;;;;25.85;7.30;;;6.70;99.90;;;;;;5007417;28;20050;-80
2022/01/27 07:11:55;;;;;;;21.90;7.55;;;7.90;99.90;;;;;;5003428;28;20468;-81
2022/01/27 07:14:21;;;;;;;27.20;7.68;;;6.70;99.90;;;;;;5005120;28;20403;-81
2022/01/27 07:16:47;;;;;;;22.17;7.63;;;6.80;99.90;;;;;;4979351;28;20828;-81
2022/01/27 07:19:13;;;;;;;23.17;7.13;;;6.70;99.90;;;;;;5004797;28;20053;-81
2022/01/27 07:21:39;;;;;;;25.08;6.78;;;6.70;99.90;;;;;;5005814;28;20053;-81
2022/01/27 07:24:05;;;;;;;22.00;7.30;;;6.70;99.90;;;;;;4972164;28;20052;-81
2022/01/27 07:26:31;;;;;;;18.40;6.30;;;6.70;99.90;;;;;;5005005;28;20403;-81
2022/01/27 07:28:59;;;;;;;22.63;8.20;;;6.70;99.90;;;;;;5018289;28;20080;-80
2022/01/27 07:31:25;;;;;;;24.92;7.00;;;6.70;99.90;;;;;;5005782;28;20137;-80
2022/01/27 07:33:52;;;;;;;24.20;7.40;;;7.10;99.90;;;;;;5010002;28;20483;-81
2022/01/27 07:36:19;;;;;;;20.05;6.03;;;6.80;99.90;;;;;;5021938;28;20104;-81
2022/01/27 07:38:47;;;;;;;20.25;6.40;;;7.80;99.90;;;;;;5038171;28;20403;-81
2022/01/27 07:41:13;;;;;;;19.70;7.05;;;7.40;99.90;;;;;;5005232;28;20046;-82
2022/01/27 07:43:42;;;;;;;18.95;6.30;;;6.80;99.90;;;;;;4988349;28;20104;-81
2022/01/27 07:46:11;;;;;;;19.83;6.20;;;6.80;99.90;;;;;;4972001;28;20610;-82
2022/01/27 07:48:37;;;;;;;21.05;6.53;;;6.80;99.90;;;;;;5019813;28;20045;-82
2022/01/27 07:51:06;;;;;;;23.13;6.28;;;7.20;99.90;;;;;;5020756;28;20053;-81
2022/01/27 07:53:31;;;;;;;23.60;6.88;;;8.30;99.90;;;;;;5020396;28;20053;-82
2022/01/27 07:55:57;;;;;;;19.88;6.47;;;6.90;99.90;;;;;;4985434;28;20133;-82
2022/01/27 07:58:23;;;;;;;22.15;6.40;;;7.00;99.90;;;;;;5002996;28;20054;-82
2022/01/27 08:00:49;;;;;;;21.73;6.30;;;7.00;99.90;;;;;;5022495;28;20052;-83
2022/01/27 08:03:14;;;;;;;21.38;5.85;;;7.00;99.90;;;;;;5005906;28;20080;-82
2022/01/27 08:05:40;;;;;;;18.25;6.25;;;7.00;99.90;;;;;;5007383;28;20499;-81
2022/01/27 08:08:06;;;;;;;21.90;6.78;;;7.00;99.90;;;;;;5007301;28;20570;-81
2022/01/27 08:10:38;;;;;;;19.83;6.20;;;7.00;99.90;;;;;;5007108;28;20041;-82
2022/01/27 08:13:08;;;;;;;23.55;6.47;;;7.00;99.90;;;;;;4999908;28;20060;-82
2022/01/27 08:15:34;;;;;;;21.48;6.10;;;7.00;99.90;;;;;;5023208;28;20060;-81
2022/01/27 08:18:00;;;;;;;23.92;6.30;;;7.10;99.90;;;;;;5021983;28;20041;-82
2022/01/27 08:20:26;;;;;;;22.00;5.65;;;7.10;99.90;;;;;;5006096;28;20057;-82
2022/01/27 08:22:54;;;;;;;19.08;5.88;;;7.10;99.90;;;;;;5007014;28;20057;-82
2022/01/27 08:25:21;;;;;;;16.25;5.40;;;7.10;99.90;;;;;;5007358;28;20483;-81
2022/01/27 08:27:50;;;;;;;17.58;5.80;;;7.40;99.90;;;;;;5025120;28;20042;-83
2022/01/27 08:30:18;;;;;;;18.77;6.10;;;7.00;99.90;;;;;;5028893;28;20053;-83
2022/01/27 08:35:16;;;;;;;24.20;5.20;;;7.00;99.90;;;;;;5006702;28;20053;-83
2022/01/27 08:37:42;;;;;;;20.23;5.78;;;6.90;99.90;;;;;;5025540;28;20046;-84
2022/01/27 08:40:11;;;;;;;18.98;5.97;;;6.90;99.90;;;;;;5040334;28;20096;-83
2022/01/27 08:42:40;;;;;;;26.05;6.45;;;6.90;99.90;;;;;;5026282;28;20403;-84
2022/01/27 08:45:21;;;;;;;24.08;5.88;;;6.90;99.90;;;;;;4993382;28;20045;-83
2022/01/27 08:47:47;;;;;;;22.52;5.70;;;6.90;99.90;;;;;;5027968;28;20058;-84
2022/01/27 08:50:14;;;;;;;20.15;5.55;;;7.00;99.90;;;;;;5002939;28;20041;-83
2022/01/27 08:52:42;;;;;;;19.20;5.80;;;6.80;99.90;;;;;;5022342;28;20057;-82
2022/01/27 08:55:09;;;;;;;23.10;6.00;;;7.00;99.90;;;;;;5008122;28;20055;-81
2022/01/27 08:57:35;;;;;;;20.45;5.93;;;7.10;99.90;;;;;;5021395;28;20046;-82
2022/01/27 09:00:05;;;;;;;19.58;5.47;;;7.00;99.90;;;;;;5009489;28;20049;-83
2022/01/27 09:02:30;;;;;;;29.90;6.40;;;7.00;99.90;;;;;;5023411;28;20041;-82
2022/01/27 09:04:56;;;;;;;19.60;5.80;;;6.30;99.90;;;;;;5008524;28;20060;-81
2022/01/27 09:07:22;;;;;;;20.13;4.57;;;7.00;99.90;;;;;;5025379;28;20056;-82
2022/01/27 09:09:48;;;;;;;22.25;5.90;;;7.20;99.90;;;;;;5023881;28;20050;-82
2022/01/27 09:12:14;;;;;;;18.25;5.05;;;7.10;99.90;;;;;;5038495;28;20053;-80
2022/01/27 09:14:42;;;;;;;22.98;5.38;;;7.20;99.90;;;;;;5004446;28;20053;-80
2022/01/27 09:17:12;;;;;;;22.75;5.13;;;7.20;99.90;;;;;;5020813;28;20038;-81
2022/01/27 09:19:41;;;;;;;18.83;4.72;;;7.30;99.90;;;;;;4990347;28;20046;-81
2022/01/27 09:22:12;;;;;;;21.60;5.00;;;7.40;99.90;;;;;;5021334;28;20056;-81
2022/01/27 09:24:55;;;;;;;14.88;4.53;;;7.60;99.90;;;;;;4983685;28;20042;-81
2022/01/27 09:27:21;;;;;;;19.30;4.10;;;7.50;99.90;;;;;;5019723;28;20081;-81
2022/01/27 09:29:48;;;;;;;18.75;4.20;;;7.70;99.90;;;;;;4976897;28;20085;-81
2022/01/27 09:32:18;;;;;;;14.30;4.55;;;7.80;99.90;;;;;;5025075;28;20108;-80
2022/01/27 09:34:45;;;;;;;23.00;4.75;;;7.80;99.90;;;;;;4990279;28;20056;-81
2022/01/27 09:37:11;;;;;;;15.57;4.00;;;7.80;99.90;;;;;;4982137;28;20051;-81
2022/01/27 09:39:45;;;;;;;19.48;4.15;;;7.80;99.90;;;;;;5019577;28;20073;-82
2022/01/27 09:42:12;;;;;;;13.90;4.53;;;7.80;99.90;;;;;;4989170;28;20054;-82
2022/01/27 09:44:41;;;;;;;16.70;4.47;;;7.80;99.90;;;;;;5038494;28;20049;-79
2022/01/27 09:47:11;;;;;;;18.13;4.90;;;7.80;99.90;;;;;;4998250;28;20050;-80
2022/01/27 09:49:43;;;;;;;19.05;4.88;;;7.90;99.90;;;;;;5023194;28;20061;-82
2022/01/27 09:52:09;;;;;;;19.45;4.72;;;7.90;99.90;;;;;;5009046;28;20122;-80
2022/01/27 09:54:36;;;;;;;21.65;4.63;;;7.90;99.90;;;;;;5040572;28;20133;-80
2022/01/27 09:57:05;;;;;;;17.58;4.78;;;7.90;99.90;;;;;;5037013;28;20483;-80
2022/01/27 09:59:31;;;;;;;18.70;3.92;;;7.90;99.90;;;;;;5024200;28;20046;-80
2022/01/27 10:02:08;;;;;;;15.10;4.45;;;7.80;99.90;;;;;;5006555;28;20383;-83
2022/01/27 10:04:59;;;;;;;14.10;4.35;;;7.80;99.90;;;;;;5038754;28;20100;-79
2022/01/27 10:07:28;;;;;;;20.73;4.55;;;7.80;99.90;;;;;;5006608;28;20127;-77
2022/01/27 10:10:04;;;;;;;17.40;4.20;;;8.20;99.90;;;;;;5001246;28;20044;-82
2022/01/27 10:12:39;;;;;;;23.70;5.25;;;7.80;99.90;;;;;;5030115;28;20409;-83
2022/01/27 10:15:20;;;;;;;19.50;4.47;;;7.80;99.90;;;;;;5004302;28;20518;-84
2022/01/27 10:18:08;;;;;;;19.40;4.30;;;7.00;99.90;;;;;;4986977;28;20054;-87
2022/01/27 10:20:37;;;;;;;19.80;4.80;;;7.90;99.90;;;;;;5039956;28;20050;-82
2022/01/27 10:23:10;;;;;;;19.45;4.93;;;7.90;99.90;;;;;;5004372;28;20068;-80
2022/01/27 10:25:46;;;;;;;26.23;5.28;;;7.90;99.90;;;;;;4997475;28;20111;-78
2022/01/27 10:28:56;;;;;;;20.33;4.53;;;7.90;99.90;;;;;;5021248;28;20096;-80
2022/01/27 10:31:19;;;;;;;18.77;5.20;;;7.90;99.90;;;;;;5001182;28;20061;-81
2022/01/27 10:33:59;;;;;;;20.45;4.28;;;7.90;99.90;;;;;;5020761;28;20076;-81
2022/01/27 10:36:31;;;;;;;27.67;4.97;;;8.00;99.90;;;;;;5002969;28;20043;-81
2022/01/27 10:39:00;;;;;;;17.08;4.07;;;8.10;99.90;;;;;;4984363;28;20062;-81
2022/01/27 10:41:28;;;;;;;20.50;4.90;;;8.10;99.90;;;;;;5020205;28;20046;-82
2022/01/27 10:44:12;;;;;;;19.40;4.03;;;8.30;99.90;;;;;;5015473;28;20058;-82
2022/01/27 10:47:01;;;;;;;22.98;4.40;;;8.30;99.90;;;;;;5017768;28;20057;-85
2022/01/27 10:49:37;;;;;;;11.82;4.00;;;8.30;99.90;;;;;;4991023;28;20050;-80
2022/01/27 10:52:03;;;;;;;26.75;4.43;;;8.10;99.90;;;;;;4982358;28;20057;-82
2022/01/27 10:54:48;;;;;;;21.90;5.35;;;8.10;99.90;;;;;;4984005;28;20057;-82
2022/01/27 10:57:13;;;;;;;20.83;4.13;;;7.90;99.90;;;;;;5004642;28;20569;-84
2022/01/27 10:59:44;;;;;;;21.85;5.00;;;8.10;99.90;;;;;;5005945;28;20042;-84
2022/01/27 11:02:12;;;;;;;23.85;4.95;;;8.10;99.90;;;;;;5021807;28;20411;-85
2022/01/27 11:04:46;;;;;;;26.50;4.68;;;8.00;99.90;;;;;;5021015;28;20065;-86
2022/01/27 11:07:14;;;;;;;25.20;5.97;;;8.20;99.90;;;;;;5018393;28;20415;-80
2022/01/27 11:09:44;;;;;;;26.73;4.78;;;8.10;99.90;;;;;;5020709;28;20049;-80
2022/01/27 11:12:18;;;;;;;20.27;5.40;;;8.20;99.90;;;;;;4987388;28;20058;-81
2022/01/27 11:14:48;;;;;;;22.13;5.47;;;8.20;99.90;;;;;;5017904;28;20503;-81
2022/01/27 11:17:22;;;;;;;23.38;4.90;;;8.30;99.90;;;;;;5020103;28;20061;-81
2022/01/27 11:27:33;;;;;;;20.15;4.72;;;8.50;99.90;;;;;;5033513;28;20054;-81
2022/01/27 11:30:08;;;;;;;24.65;4.53;;;7.70;99.90;;;;;;5002975;28;20042;-81
2022/01/27 11:32:40;;;;;;;18.63;3.83;;;7.80;99.90;;;;;;4987238;28;20054;-82
2022/01/27 11:35:21;;;;;;;21.00;4.47;;;8.80;99.90;;;;;;4986493;28;20080;-82
2022/01/27 11:38:28;;;;;;;15.80;3.67;;;8.70;99.90;;;;;;5021571;28;20057;-87
2022/01/27 11:41:03;;;;;;;19.13;4.83;;;8.80;99.90;;;;;;4991190;28;20053;-85
2022/01/27 11:43:43;;;;;;;;;;;;;;;;;;;;;
2022/01/27 11:46:14;;;;;;;19.95;4.55;;;8.80;99.90;;;;;;5002480;28;20050;-82
2022/01/27 11:48:40;;;;;;;18.88;4.60;;;8.80;99.90;;;;;;5038120;28;20045;-81
2022/01/27 11:51:11;;;;;;;18.10;4.30;;;8.70;99.90;;;;;;5005550;28;20148;-82
2022/01/27 11:53:42;;;;;;;21.02;4.18;;;8.70;99.90;;;;;;5004868;28;20539;-81
2022/01/27 11:56:15;;;;;;;19.45;4.38;;;8.70;99.90;;;;;;5038965;28;20055;-81
2022/01/27 11:58:49;;;;;;;19.90;3.75;;;8.60;99.90;;;;;;5021065;28;20078;-80
2022/01/27 12:01:18;;;;;;;20.48;4.43;;;8.60;99.90;;;;;;5004374;28;20038;-81
2022/01/27 12:04:02;;;;;;;19.13;3.80;;;8.50;99.90;;;;;;5013250;28;20135;-81
2022/01/27 12:06:29;;;;;;;19.05;4.05;;;8.50;99.90;;;;;;5001865;28;20543;-80
2022/01/27 12:09:17;;;;;;;20.10;3.85;;;8.50;99.90;;;;;;5004197;28;20049;-80
2022/01/27 12:12:02;;;;;;;18.35;3.95;;;8.50;99.90;;;;;;4987477;28;20050;-80
2022/01/27 12:14:33;;;;;;;18.13;3.90;;;8.60;99.90;;;;;;5014392;28;20340;-80
2022/01/27 12:17:08;;;;;;;15.38;3.67;;;8.60;99.90;;;;;;4988797;28;20050;-80
2022/01/27 12:19:54;;;;;;;16.67;3.77;;;8.60;99.90;;;;;;5027403;28;20045;-80
2022/01/27 12:22:43;;;;;;;16.38;3.60;;;8.60;99.90;;;;;;5017829;28;20053;-80
2022/01/27 12:25:10;;;;;;;16.35;3.40;;;8.60;99.90;;;;;;5035661;28;20786;-81
2022/01/27 12:27:37;;;;;;;20.73;4.00;;;8.60;99.90;;;;;;5020405;28;20487;-80
2022/01/27 12:30:06;;;;;;;18.80;3.15;;;8.70;99.90;;;;;;5019990;28;20072;-80
2022/01/27 12:32:33;;;;;;;19.63;3.60;;;8.70;99.90;;;;;;4985910;28;20045;-82
2022/01/27 12:35:04;;;;;;;18.63;4.07;;;8.70;99.90;;;;;;5016179;28;20046;-82
2022/01/27 12:37:35;;;;;;;20.40;3.33;;;8.70;99.90;;;;;;5017537;28;20638;-82
2022/01/27 12:40:09;;;;;;;18.85;3.50;;;8.70;99.90;;;;;;4988546;28;20038;-83
2022/01/27 12:42:37;;;;;;;21.20;4.50;;;8.60;99.90;;;;;;5004148;28;20141;-82
2022/01/27 12:45:13;;;;;;;13.10;3.25;;;8.60;99.90;;;;;;4994166;28;20049;-80
2022/01/27 12:47:44;;;;;;;18.38;4.15;;;8.60;99.90;;;;;;5019510;28;20046;-80
2022/01/27 12:50:13;;;;;;;17.13;3.35;;;8.60;99.90;;;;;;5036685;28;20069;-81
2022/01/27 12:52:43;;;;;;;20.08;3.90;;;8.70;99.90;;;;;;5002703;28;20045;-80
2022/01/27 12:55:12;;;;;;;20.25;4.05;;;8.70;99.90;;;;;;5013348;28;20060;-81
2022/01/27 12:57:40;;;;;;;17.88;3.58;;;8.90;99.90;;;;;;5035854;28;20050;-81
2022/01/27 13:00:09;;;;;;;23.48;3.45;;;8.90;99.90;;;;;;5020216;28;20096;-81
2022/01/27 13:02:35;;;;;;;16.10;3.67;;;8.90;99.90;;;;;;5003296;28;20081;-81
2022/01/27 13:05:02;;;;;;;21.17;3.85;;;9.00;99.90;;;;;;5012043;28;20511;-81
2022/01/27 13:07:29;;;;;;;23.77;4.30;;;9.00;99.90;;;;;;5036181;28;20042;-81
2022/01/27 13:10:06;;;;;;;20.50;3.95;;;9.00;99.90;;;;;;5024797;28;20046;-82
2022/01/27 13:12:42;;;;;;;17.65;3.60;;;9.00;99.90;;;;;;5006397;28;20050;-82
2022/01/27 13:15:13;;;;;;;15.98;3.00;;;9.00;99.90;;;;;;4986771;28;20566;-84
2022/01/27 13:17:51;;;;;;;22.25;3.97;;;9.00;99.90;;;;;;5025706;28;20511;-83
2022/01/27 13:20:33;;;;;;;18.60;3.25;;;9.00;99.90;;;;;;5017275;28;20060;-82
2022/01/27 13:23:17;;;;;;;18.70;3.83;;;9.00;99.90;;;;;;4991978;28;20053;-83
2022/01/27 13:25:53;;;;;;;15.60;3.20;;;9.00;99.90;;;;;;5039829;28;20748;-83
2022/01/27 13:28:23;;;;;;;16.23;3.40;;;9.00;99.90;;;;;;5041438;28;20065;-83
2022/01/27 13:31:00;;;;;;;14.63;3.10;;;9.00;99.90;;;;;;5009835;28;20046;-82
2022/01/27 13:33:28;;;;;;;18.15;3.30;;;9.10;99.90;;;;;;5023624;28;20049;-83
2022/01/27 13:35:56;;;;;;;12.52;3.20;;;9.00;99.90;;;;;;5008879;28;20144;-83
2022/01/27 13:38:26;;;;;;;21.02;3.20;;;8.90;99.90;;;;;;5007761;28;20037;-83
2022/01/27 13:41:16;;;;;;;20.00;4.18;;;8.80;99.90;;;;;;5024669;28;20065;-83
2022/01/27 13:43:43;;;;;;;13.60;3.28;;;8.80;99.90;;;;;;5008492;28;20050;-83
2022/01/27 13:46:11;;;;;;;16.80;3.60;;;8.60;99.90;;;;;;5023607;28;20053;-82
2022/01/27 13:48:43;;;;;;;15.38;2.97;;;8.60;99.90;;;;;;5008341;28;20128;-81